Pos.Doss.NomPrenomTempsVit.Moy.Allure Pos. cat�gCat�gorie Points Club
1 34 MEMURLIN CHRISTOPHE 00:33:51 17.73 00:03:23 1Séniors 1000 TEAM SOMJA
2 3555 SPITS CLEMENT 00:36:38 16.38 00:03:40 2Séniors 990
3 3573 FAYET THOMAS 00:36:47 16.31 00:03:41 3Séniors 980
4 3602 LARUE ARNAUD 00:36:49 16.3 00:03:41 4Séniors 969 JIA
5 2 TOSI IRENE 00:36:53 16.27 00:03:41 1Dames 959 JOG IN ATTITUDE
6 3556 OLIESLAGER GILLES 00:37:09 16.15 00:03:43 5Séniors 949 RUN IN LIEGE
7 3588 KEMPENEERS CEDRIC 00:37:29 16.01 00:03:45 1Vétérans 1 939 RUNNING BREAK
8 3559 RICHEL LUDOVIC 00:38:11 15.71 00:03:49 6Séniors 929 JIA
9 6 EVRARD AMAURY 00:39:13 15.3 00:03:55 2Vétérans 1 918 TEAM SOMJA
10 115 GUISSART ALAIN 00:39:16 15.28 00:03:56 1Vétérans 2 908 PAS DE CLUB
11 88 DEMIRCI ERSEN 00:40:00 15 00:04:00 7Séniors 898 PAS DE CLUB
12 3578 LEROY ALEXIS 00:41:09 14.58 00:04:07 8Séniors 888 JOG IN ATTITUDE
13 4 BOLLEN PASCAL 00:41:21 14.51 00:04:08 1Vétérans 3 878 SERAING ATHLETISME
14 137 DEJARDIN FRED 00:42:02 14.27 00:04:12 2Vétérans 2 867 PAS DE CLUB
15 3576 GOBATTO MARIO 00:42:24 14.15 00:04:14 3Vétérans 1 857
16 3557 RODRIGUEZ FABRICE 00:42:37 14.08 00:04:16 4Vétérans 1 847 JIA
17 3571 DEMARCHE CHRISTOPHE 00:42:37 14.08 00:04:16 5Vétérans 1 837 RUNNING BREAK
18 3564 NOIRHOMME PIERRE 00:42:47 14.02 00:04:17 6Vétérans 1 827 CHALLENGE L AVENIR
19 68 BALSAN LUC 00:42:58 13.96 00:04:18 3Vétérans 2 816 ATHLETISME MEHAGNE CLUB
20 124 EVRARD ROLAND 00:43:01 13.95 00:04:18 7Vétérans 1 806 PAS DE CLUB
21 207 MATAGNE GEOFFREY 00:43:07 13.92 00:04:19 9Séniors 796
22 3577 LEGRAND SOPHIE 00:43:20 13.85 00:04:20 2Dames 786
23 127 AKKERMANS CHRISTIAN 00:44:47 13.4 00:04:29 2Vétérans 3 776 JOG IN ATTITUDE
24 78 MULLENS LAURENT 00:44:50 13.38 00:04:29 8Vétérans 1 765 LGS
25 1 PHILIPPE PATRICK 00:45:15 13.26 00:04:32 4Vétérans 2 755 JOG IN ATTITUDE
26 33 LEFORT PIERRE 00:45:42 13.13 00:04:34 9Vétérans 1 745 ATHLETISME MEHAGNE CLUB
27 3618 RULMONT JEROME 00:46:01 13.04 00:04:36 10Séniors 735
28 3593 BUCKINX EMMA 00:46:13 12.98 00:04:37 1Ainées 2 724 RFCL
29 3567 NOWAK BERNARD 00:46:15 12.97 00:04:38 5Vétérans 2 714
30 175 CLOSSET DIDIER 00:46:22 12.94 00:04:38 10Vétérans 1 704 HERVE
31 205 FREDERICH DOMINIQUE 00:46:29 12.91 00:04:39 2Ainées 2 694
32 403 KERIS MONIQUE 00:46:34 12.88 00:04:39 3Ainées 2 684 RUN IN LIEGE
33 3569 AVERNO FABRICE 00:46:35 12.88 00:04:40 11Vétérans 1 673
34 3554 HENROTTIN DIDIER 00:46:37 12.87 00:04:40 6Vétérans 2 663 RDV RUN
35 3622 THEUNISSEN VINCENT 00:47:09 12.73 00:04:43 7Vétérans 2 653
36 3624 INANA CEDRIC 00:47:09 12.73 00:04:43 11Séniors 643
37 450 REMY SÉBASTIEN 00:47:22 12.67 00:04:44 12Séniors 633 PAS DE CLUB
38 3563 PISCART FRANCOISE 00:47:47 12.56 00:04:47 4Ainées 2 622 SER ATH
39 3595 SEIVERT VALENTINE 00:47:58 12.51 00:04:48 3Dames 612 RFCL
40 59 BURNIAT OLIVIER 00:48:23 12.4 00:04:50 13Séniors 602 AUTRE
41 3627 BORGERS CEDRIC 00:48:43 12.32 00:04:52 14Séniors 592
42 3625 MUSCIA CEDRIC 00:48:57 12.26 00:04:54 12Vétérans 1 582 JOG IN ATTITUDE
43 3591 KUFFER STEPHANIE 00:49:03 12.23 00:04:54 4Dames 571
44 408 KEIL YVES 00:49:20 12.16 00:04:56 8Vétérans 2 561 JOG IN ATTITUDE
45 3614 CIARNIELLO FABRICE 00:49:37 12.09 00:04:58 13Vétérans 1 551
46 52 PIFFET JOSS 00:49:49 12.04 00:04:59 15Séniors 541 PAS DE CLUB
47 3608 DELREZ MARIE HELENE 00:50:05 11.98 00:05:01 5Ainées 2 531 JIA
48 3610 COUNET CHRISTIAN 00:50:07 11.97 00:05:01 3Vétérans 3 520 JIA
49 123 ZINNEN LAETITIA 00:50:25 11.9 00:05:03 5Dames 510 PAS DE CLUB
50 43 RONCATO FABRICE 00:51:00 11.76 00:05:06 14Vétérans 1 500 CJPL
51 3100 BARNABE MICHEL 00:51:09 11.73 00:05:07 4Vétérans 3 490 RDV RUN
52 3623 NULENS CEDRIC 00:51:27 11.66 00:05:09 15Vétérans 1 480
53 144 FERNANDEZ HERRERA BERNARD 00:51:29 11.65 00:05:09 9Vétérans 2 469 SODEXO RUN
54 55 MANCINI MICHEL 00:51:43 11.6 00:05:10 1Vétérans 4 459 SERAING ATHLETISME
55 5 MATHOT RICHARD 00:52:55 11.34 00:05:18 5Vétérans 3 449 RFCL ATHLETISME
56 3566 SIMON BRUNO 00:52:55 11.34 00:05:18 6Vétérans 3 439
57 29 MERTENS CAROLINE 00:53:34 11.2 00:05:21 6Dames 429 PAS DE CLUB
58 3583 BOUNAMEAU JACKY 00:54:02 11.1 00:05:24 10Vétérans 2 418
59 3380 HENRY MARIE JENNIFER 00:54:23 11.03 00:05:26 6Ainées 2 408
60 3585 MEUNIER DAVID 00:54:40 10.98 00:05:28 11Vétérans 2 398
61 3568 DEWIL JEAN 00:54:43 10.97 00:05:28 7Vétérans 3 388 JIA
62 3249 BOSSELOIR ANNICK 00:55:04 10.9 00:05:30 7Ainées 2 378 RDV RUN
63 3617 VERMEULEN DAVID 00:55:27 10.82 00:05:33 16Séniors 367
64 147 RYSENAER JEAN 00:55:32 10.8 00:05:33 2Vétérans 4 357 PAS DE CLUB
65 3611 JANSSEN MAURICE 00:55:53 10.74 00:05:35 12Vétérans 2 347
66 3597 WILKIN MAXIME 00:56:07 10.69 00:05:37 16Vétérans 1 337 JIA
67 3574 FORET MICHAEL 00:56:13 10.67 00:05:37 17Séniors 327
68 3581 NATALIS MICHELE 00:56:21 10.65 00:05:38 8Ainées 2 316 RUNNING BREAK
69 345 GHILAIN ANDRE 00:56:31 10.62 00:05:39 8Vétérans 3 306 RUN IN LIEGE
70 3587 DELEDICQUE JEAN=LUC 00:56:41 10.59 00:05:40 13Vétérans 2 296
71 3570 FELTRIN ANICK 00:56:45 10.57 00:05:41 1Ainées 3 286 RDV RUN
72 126 PITCHOT CLAUDE 00:57:12 10.49 00:05:43 17Vétérans 1 276 RDV RUN
73 3560 BAILLY YORIK 00:57:12 10.49 00:05:43 1Espoirs H 265 RDV RUN
74 3594 PIRARD SEVERINE 00:57:26 10.45 00:05:45 1Ainées 1 255 RDV RUN
75 3601 HENROTIN CHLOE 00:57:43 10.4 00:05:46 7Dames 245 RDV RUN
76 3596 DETHIER SOPHIE 00:58:01 10.34 00:05:48 8Dames 235
77 3607 PAESMANS CECILE 00:58:04 10.33 00:05:48 2Ainées 1 224
78 3589 VERSLEGERS ANDRE 00:58:49 10.2 00:05:53 14Vétérans 2 214
79 3575 FORET KILLIAN 00:59:25 10.1 00:05:57 ?
80 3603 LEMAIRE GEOFFREY 00:59:29 10.09 00:05:57 18Vétérans 1 204
81 3565 FONBONNE RICHARD 00:59:34 10.07 00:05:57 15Vétérans 2 194
82 3586 PEETERS SOPHIE 00:59:44 10.04 00:05:58 3Ainées 1 184
83 3580 RADERMECKER PAULINE 00:59:53 10.02 00:05:59 9Dames 173 RUNNING BREAK
84 177 RANDRIAMAMPIANINA LIVA 01:01:50 9.7 00:06:11 4Ainées 1 163 ATHLETISME MEHAGNE CLUB
85 3590 PIRENNE MAGALI 01:01:51 9.7 00:06:11 10Dames 153
86 67 VAN LAAR CHRISTINE 01:02:02 9.67 00:06:12 9Ainées 2 143 CJPL
87 3592 MILAZZO CELINE 01:02:39 9.58 00:06:16 11Dames 133 RUNNING BREAK
88 143 LELOUP DOMINIQUE 01:02:52 9.54 00:06:17 10Ainées 2 122 RDV RUN
89 3095 NELHIEBEL GYULA 01:03:03 9.52 00:06:18 16Vétérans 2 112 LE MIEN
90 3584 GERARD ROLAND 01:03:05 9.51 00:06:19 3Vétérans 4 102 SOLO
91 3558 DELHEZ BERNARD 01:03:21 9.47 00:06:20 17Vétérans 2 92
92 3553 ANTOINE PASCAL 01:03:39 9.43 00:06:22 18Séniors 82
93 3613 DODEMONT CAROLINE 01:04:19 9.33 00:06:26 5Ainées 1 71
94 3612 VAN DE WEERDT AURELIE 01:04:20 9.33 00:06:26 6Ainées 1 61
95 3616 SOUGNIER JULES 01:04:52 9.25 00:06:29 19Séniors 51
96 101 KABWE JEANNE 01:06:58 8.96 00:06:42 11Ainées 2 41
97 102 NIZET PASCAL 01:07:36 8.88 00:06:46 18Vétérans 2 31
98 3008 BALHAN CHANTAL 01:09:10 8.67 00:06:55 12Ainées 2 20 RDV RUN B-H
99 3025 BARITTE MARIE 01:13:17 8.19 00:07:20 13Ainées 2 10 RDV RUN B-H
RDV RUN Beyne 2022
Distance : 10.0 kms
99 coureurs
Normal Interclubs